createdAt,value
2018-09-30T00:01:52.190Z,99.90
2018-09-30T00:04:20.489Z,99.90
2018-09-30T00:06:48.758Z,99.90
2018-09-30T00:09:17.024Z,99.90
2018-09-30T00:11:45.327Z,99.90
2018-09-30T00:14:13.606Z,99.90
2018-09-30T00:16:41.851Z,99.90
2018-09-30T00:19:10.174Z,99.90
2018-09-30T00:21:38.479Z,99.90
2018-09-30T00:24:12.066Z,99.90
2018-09-30T00:26:45.646Z,99.90
2018-09-30T00:29:14.093Z,99.90
2018-09-30T00:31:42.376Z,99.90
2018-09-30T00:34:15.977Z,99.90
2018-09-30T00:36:44.245Z,99.90
2018-09-30T00:39:12.529Z,99.90
2018-09-30T00:41:40.797Z,99.90
2018-09-30T00:44:09.122Z,99.90
2018-09-30T00:46:37.441Z,99.90
2018-09-30T00:49:05.903Z,99.90
2018-09-30T00:51:34.187Z,99.90
2018-09-30T00:54:02.791Z,99.90
2018-09-30T00:56:31.065Z,99.90
2018-09-30T00:58:59.361Z,99.90
2018-09-30T01:01:27.858Z,99.90
2018-09-30T01:03:56.190Z,99.90
2018-09-30T01:06:24.443Z,99.90
2018-09-30T01:08:52.740Z,99.90
2018-09-30T01:11:21.196Z,99.90
2018-09-30T01:13:49.486Z,99.90
2018-09-30T01:16:17.761Z,99.90
2018-09-30T01:18:46.230Z,99.90
2018-09-30T01:21:14.478Z,99.90
2018-09-30T01:23:42.742Z,99.90
2018-09-30T01:26:10.976Z,99.90
2018-09-30T01:28:39.382Z,99.90
2018-09-30T01:31:08.242Z,99.90
2018-09-30T01:33:36.693Z,99.90
2018-09-30T01:36:05.622Z,99.90
2018-09-30T01:38:34.051Z,99.90
2018-09-30T01:41:02.349Z,99.90
2018-09-30T01:43:30.638Z,99.90
2018-09-30T01:45:58.955Z,99.90
2018-09-30T01:48:27.201Z,99.90
2018-09-30T01:50:55.500Z,99.90
2018-09-30T01:53:23.766Z,99.90
2018-09-30T01:55:52.055Z,99.90
2018-09-30T01:58:20.324Z,99.90
2018-09-30T02:00:48.607Z,99.90
2018-09-30T02:03:16.881Z,99.90
2018-09-30T02:05:45.138Z,99.90
2018-09-30T02:08:13.406Z,99.90
2018-09-30T02:10:41.684Z,99.90
2018-09-30T02:13:10.398Z,99.90
2018-09-30T02:15:38.685Z,99.90
2018-09-30T02:18:06.961Z,99.90
2018-09-30T02:20:35.245Z,99.90
2018-09-30T02:23:03.525Z,99.90
2018-09-30T02:25:43.727Z,99.90
2018-09-30T02:28:12.038Z,99.90
2018-09-30T02:30:40.440Z,99.90
2018-09-30T02:33:08.677Z,99.90
2018-09-30T02:35:36.995Z,99.90
2018-09-30T02:38:05.257Z,99.90
2018-09-30T02:40:33.530Z,99.90
2018-09-30T02:43:01.783Z,99.90
2018-09-30T02:45:30.009Z,99.90
2018-09-30T02:47:58.337Z,99.90
2018-09-30T02:50:26.620Z,99.90
2018-09-30T02:52:54.905Z,99.90
2018-09-30T02:55:23.216Z,99.90
2018-09-30T02:57:51.469Z,99.90
2018-09-30T03:00:19.741Z,99.90
2018-09-30T03:02:48.041Z,99.90
2018-09-30T03:05:16.286Z,99.90
2018-09-30T03:07:49.965Z,99.90
2018-09-30T03:10:18.213Z,99.90
2018-09-30T03:12:46.472Z,99.90
2018-09-30T03:15:14.787Z,99.90
2018-09-30T03:17:43.069Z,99.90
2018-09-30T03:20:11.406Z,99.90
2018-09-30T03:22:39.805Z,99.90
2018-09-30T03:25:08.063Z,99.90
2018-09-30T03:27:36.316Z,99.90
2018-09-30T03:30:04.746Z,99.90
2018-09-30T03:32:33.032Z,99.90
2018-09-30T03:35:01.320Z,99.90
2018-09-30T03:37:29.637Z,99.90
2018-09-30T03:39:57.891Z,99.90
2018-09-30T03:42:26.150Z,99.90
2018-09-30T03:44:55.299Z,99.90
2018-09-30T03:47:24.691Z,99.90
2018-09-30T03:49:52.935Z,99.90
2018-09-30T03:52:21.296Z,99.90
2018-09-30T03:54:49.676Z,99.90
2018-09-30T03:57:18.003Z,99.90
2018-09-30T03:59:46.338Z,99.90
2018-09-30T04:02:14.669Z,99.90
2018-09-30T04:04:42.897Z,99.90
2018-09-30T04:07:11.174Z,99.90
2018-09-30T04:09:39.492Z,99.90
2018-09-30T04:12:07.743Z,99.90
2018-09-30T04:14:36.054Z,99.90
2018-09-30T04:17:04.499Z,99.90
2018-09-30T04:19:33.739Z,99.90
2018-09-30T04:22:02.002Z,99.90
2018-09-30T04:24:30.267Z,99.90
2018-09-30T04:26:58.500Z,99.90
2018-09-30T04:29:26.767Z,99.90
2018-09-30T04:31:56.157Z,99.90
2018-09-30T04:34:24.454Z,99.90
2018-09-30T04:36:52.773Z,99.90
2018-09-30T04:39:21.339Z,99.90
2018-09-30T04:41:49.679Z,99.90
2018-09-30T04:44:17.958Z,99.90
2018-09-30T04:46:46.317Z,99.90
2018-09-30T04:49:14.550Z,99.90
2018-09-30T04:51:42.935Z,99.90
2018-09-30T04:54:11.178Z,99.90
2018-09-30T04:56:39.416Z,99.90
2018-09-30T04:59:07.709Z,99.90
2018-09-30T05:01:36.008Z,99.90
2018-09-30T05:04:04.274Z,99.90
2018-09-30T05:06:32.518Z,99.90
2018-09-30T05:09:00.790Z,99.90
2018-09-30T05:11:29.045Z,99.90
2018-09-30T05:13:57.322Z,99.90
2018-09-30T05:16:25.714Z,99.90
2018-09-30T05:18:53.889Z,99.90
2018-09-30T05:21:22.158Z,99.90
2018-09-30T05:23:50.430Z,99.90
2018-09-30T05:26:18.698Z,99.90
2018-09-30T05:28:46.978Z,99.90
2018-09-30T05:31:15.426Z,99.90
2018-09-30T05:33:43.685Z,99.90
2018-09-30T05:36:11.965Z,99.90
2018-09-30T05:38:40.211Z,99.90
2018-09-30T05:41:08.517Z,99.90
2018-09-30T05:43:36.749Z,99.90
2018-09-30T05:46:05.022Z,99.90
2018-09-30T05:48:33.307Z,99.90
2018-09-30T05:51:01.660Z,99.90
2018-09-30T05:53:30.035Z,99.90
2018-09-30T05:55:58.309Z,99.90
2018-09-30T05:58:26.565Z,99.90
2018-09-30T06:00:54.995Z,99.90
2018-09-30T06:03:23.273Z,99.90
2018-09-30T06:05:51.543Z,99.90
2018-09-30T06:08:19.887Z,99.90
2018-09-30T06:10:48.632Z,99.90
2018-09-30T06:13:16.909Z,99.90
2018-09-30T06:15:45.252Z,99.90
2018-09-30T06:18:13.465Z,99.90
2018-09-30T06:20:41.778Z,99.90
2018-09-30T06:23:10.607Z,99.90
2018-09-30T06:25:38.878Z,99.90
2018-09-30T06:28:07.145Z,99.90
2018-09-30T06:30:35.446Z,99.90
2018-09-30T06:33:03.735Z,99.90
2018-09-30T06:35:32.038Z,99.90
2018-09-30T06:38:00.524Z,99.90
2018-09-30T06:40:28.798Z,99.90
2018-09-30T06:42:57.184Z,99.90
2018-09-30T06:45:25.634Z,99.90
2018-09-30T06:47:53.989Z,99.90
2018-09-30T06:50:22.227Z,99.90
2018-09-30T06:52:50.492Z,99.90
2018-09-30T06:55:18.770Z,99.90
2018-09-30T06:57:47.061Z,99.90
2018-09-30T07:00:15.496Z,99.90
2018-09-30T07:02:43.771Z,99.90
2018-09-30T07:05:12.071Z,99.90
2018-09-30T07:07:40.379Z,99.90
2018-09-30T07:10:08.890Z,99.90
2018-09-30T07:12:37.141Z,99.90
2018-09-30T07:15:05.644Z,99.90
2018-09-30T07:17:34.086Z,99.90
2018-09-30T07:20:02.359Z,99.90
2018-09-30T07:22:30.755Z,99.90
2018-09-30T07:24:59.052Z,99.70
2018-09-30T07:27:27.352Z,99.90
2018-09-30T07:29:55.554Z,99.40
2018-09-30T07:32:23.788Z,99.50
2018-09-30T07:34:52.053Z,99.00
2018-09-30T07:37:20.575Z,98.70
2018-09-30T07:39:49.033Z,99.10
2018-09-30T07:42:17.352Z,98.80
2018-09-30T07:44:45.607Z,99.10
2018-09-30T07:47:13.890Z,98.40
2018-09-30T07:49:42.134Z,98.40
2018-09-30T07:52:10.652Z,97.80
2018-09-30T07:54:39.295Z,97.30
2018-09-30T07:57:07.761Z,96.70
2018-09-30T07:59:36.226Z,96.70
2018-09-30T08:02:05.066Z,95.80
2018-09-30T08:04:33.411Z,95.60
2018-09-30T08:07:01.802Z,95.20
2018-09-30T08:09:30.117Z,94.90
2018-09-30T08:11:58.413Z,94.60
2018-09-30T08:14:26.729Z,94.20
2018-09-30T08:16:55.247Z,93.80
2018-09-30T08:19:23.552Z,93.80
2018-09-30T08:21:51.883Z,93.30
2018-09-30T08:24:20.224Z,93.60
2018-09-30T08:26:48.442Z,92.90
2018-09-30T08:29:16.742Z,91.20
2018-09-30T08:31:45.223Z,89.50
2018-09-30T08:34:13.543Z,90.20
2018-09-30T08:36:42.009Z,90.20
2018-09-30T08:39:10.534Z,90.40
2018-09-30T08:41:39.080Z,86.90
2018-09-30T08:44:07.497Z,84.60
2018-09-30T08:46:35.819Z,83.30
2018-09-30T08:49:04.186Z,85.50
2018-09-30T08:51:32.545Z,84.80
2018-09-30T08:54:00.954Z,84.30
2018-09-30T08:56:29.450Z,83.50
2018-09-30T08:58:57.809Z,85.20
2018-09-30T09:01:26.222Z,83.20
2018-09-30T09:03:54.536Z,83.00
2018-09-30T09:06:23.147Z,82.30
2018-09-30T09:08:51.629Z,81.50
2018-09-30T09:11:20.046Z,80.00
2018-09-30T09:13:48.370Z,79.20
2018-09-30T09:16:16.965Z,80.50
2018-09-30T09:18:45.256Z,81.80
2018-09-30T09:21:13.651Z,79.20
2018-09-30T09:23:42.069Z,80.70
2018-09-30T09:26:10.484Z,80.60
2018-09-30T09:28:38.894Z,81.20
2018-09-30T09:31:07.193Z,80.70
2018-09-30T09:33:35.531Z,82.10
2018-09-30T09:36:03.854Z,79.50
2018-09-30T09:38:32.293Z,79.30
2018-09-30T09:41:00.598Z,79.90
2018-09-30T09:43:30.585Z,76.90
2018-09-30T09:45:58.963Z,78.00
2018-09-30T09:48:28.384Z,77.10
2018-09-30T09:50:56.626Z,76.30
2018-09-30T09:53:25.051Z,76.30
2018-09-30T09:55:53.406Z,74.60
2018-09-30T09:58:21.817Z,73.60
2018-09-30T10:00:50.319Z,73.90
2018-09-30T10:03:18.662Z,73.50
2018-09-30T10:05:47.082Z,74.40
2018-09-30T10:08:15.803Z,73.20
2018-09-30T10:10:44.181Z,73.00
2018-09-30T10:13:12.577Z,73.80
2018-09-30T10:15:40.809Z,73.20
2018-09-30T10:18:09.144Z,71.30
2018-09-30T10:20:38.150Z,71.70
2018-09-30T10:23:06.523Z,72.90
2018-09-30T10:25:34.813Z,70.10
2018-09-30T10:28:03.181Z,71.20
2018-09-30T10:30:31.912Z,71.00
2018-09-30T10:33:00.449Z,70.20
2018-09-30T10:35:28.858Z,71.60
2018-09-30T10:37:57.238Z,69.30
2018-09-30T10:40:25.636Z,68.60
2018-09-30T10:42:53.890Z,67.00
2018-09-30T10:45:22.365Z,68.00
2018-09-30T10:47:50.706Z,69.20
2018-09-30T10:50:18.993Z,67.40
2018-09-30T10:52:47.605Z,66.30
2018-09-30T10:55:16.054Z,64.90
2018-09-30T10:57:44.625Z,63.40
2018-09-30T11:00:13.065Z,63.50
2018-09-30T11:02:41.428Z,60.00
2018-09-30T11:05:09.711Z,59.20
2018-09-30T11:07:38.006Z,59.40
2018-09-30T11:10:06.612Z,57.20
2018-09-30T11:12:34.973Z,57.00
2018-09-30T11:15:03.312Z,55.70
2018-09-30T11:17:31.695Z,55.40
2018-09-30T11:20:00.241Z,55.70
2018-09-30T11:22:28.723Z,55.70
2018-09-30T11:24:57.042Z,55.30
2018-09-30T11:27:25.461Z,56.40
2018-09-30T11:29:54.398Z,57.50
2018-09-30T11:32:23.040Z,56.30
2018-09-30T11:34:51.348Z,55.60
2018-09-30T11:37:19.695Z,54.30
2018-09-30T11:39:48.058Z,55.40
2018-09-30T11:42:16.974Z,55.20
2018-09-30T11:44:45.380Z,53.20
2018-09-30T11:47:13.817Z,55.50
2018-09-30T11:49:42.202Z,53.20
2018-09-30T11:52:10.783Z,53.80
2018-09-30T11:54:39.125Z,53.00
2018-09-30T11:57:08.219Z,53.40
2018-09-30T11:59:36.498Z,54.80
2018-09-30T12:02:04.883Z,52.70
2018-09-30T12:04:33.213Z,53.30
2018-09-30T12:07:02.359Z,52.10
2018-09-30T12:09:30.892Z,52.40
2018-09-30T12:11:59.325Z,52.50
2018-09-30T12:14:27.696Z,52.80
2018-09-30T12:16:55.981Z,52.70
2018-09-30T12:19:26.521Z,52.70
2018-09-30T12:21:54.854Z,52.00
2018-09-30T12:24:23.350Z,52.40
2018-09-30T12:26:51.670Z,52.90
2018-09-30T12:29:20.135Z,52.90
2018-09-30T12:31:48.480Z,52.00
2018-09-30T12:34:16.842Z,53.00
2018-09-30T12:36:45.215Z,53.50
2018-09-30T12:39:15.965Z,52.60
2018-09-30T12:41:44.348Z,53.00
2018-09-30T12:44:12.715Z,53.80
2018-09-30T12:46:41.196Z,53.20
2018-09-30T12:49:09.526Z,52.40
2018-09-30T12:51:37.855Z,51.70
2018-09-30T12:54:07.265Z,52.20
2018-09-30T12:56:35.596Z,51.70
2018-09-30T12:59:03.935Z,51.60
2018-09-30T13:01:32.237Z,52.00
2018-09-30T13:04:00.734Z,51.20
2018-09-30T13:06:29.080Z,50.80
2018-09-30T13:08:57.475Z,51.80
2018-09-30T13:11:26.582Z,50.60
2018-09-30T13:13:54.981Z,49.90
2018-09-30T13:16:23.296Z,49.20
2018-09-30T13:18:53.330Z,49.70
2018-09-30T13:21:21.778Z,48.60
2018-09-30T13:23:50.637Z,47.90
2018-09-30T13:26:19.913Z,48.50
2018-09-30T13:28:48.725Z,48.70
2018-09-30T13:31:17.090Z,49.10
2018-09-30T13:33:45.431Z,49.50
2018-09-30T13:36:13.849Z,49.50
2018-09-30T13:38:42.958Z,47.60
2018-09-30T13:41:11.666Z,48.20
2018-09-30T13:43:39.951Z,50.00
2018-09-30T13:46:08.468Z,48.60
2018-09-30T13:48:36.915Z,48.80
2018-09-30T13:51:05.505Z,48.60
2018-09-30T13:53:34.878Z,48.20
2018-09-30T13:56:03.184Z,48.40
2018-09-30T13:58:32.019Z,48.70
2018-09-30T14:01:00.493Z,47.90
2018-09-30T14:03:29.134Z,47.50
2018-09-30T14:05:57.402Z,47.70
2018-09-30T14:08:25.752Z,47.20
2018-09-30T14:10:54.101Z,47.20
2018-09-30T14:13:22.767Z,46.50
2018-09-30T14:15:51.249Z,47.30
2018-09-30T14:18:19.597Z,46.60
2018-09-30T14:20:47.982Z,47.30
2018-09-30T14:23:16.306Z,47.90
2018-09-30T14:25:44.985Z,48.20
2018-09-30T14:28:13.298Z,48.40
2018-09-30T14:30:41.741Z,47.40
2018-09-30T14:33:10.166Z,48.40
2018-09-30T14:35:38.452Z,48.10
2018-09-30T14:38:06.845Z,48.80
2018-09-30T14:40:35.206Z,47.80
2018-09-30T14:43:03.594Z,48.20
2018-09-30T14:45:31.892Z,47.90
2018-09-30T14:48:00.387Z,48.20
2018-09-30T14:50:28.783Z,47.60
2018-09-30T14:52:57.210Z,49.00
2018-09-30T14:55:25.836Z,48.40
2018-09-30T14:57:54.245Z,48.30
2018-09-30T15:00:24.238Z,48.40
2018-09-30T15:02:53.393Z,48.60
2018-09-30T15:05:22.030Z,47.50
2018-09-30T15:07:55.815Z,48.80
2018-09-30T15:10:24.161Z,47.70
2018-09-30T15:12:53.219Z,47.40
2018-09-30T15:15:21.550Z,47.70
2018-09-30T15:17:50.009Z,47.60
2018-09-30T15:20:18.434Z,48.70
2018-09-30T15:22:47.829Z,48.50
2018-09-30T15:25:16.219Z,49.50
2018-09-30T15:27:44.911Z,48.30
2018-09-30T15:30:13.278Z,48.10
2018-09-30T15:33:03.590Z,49.10
2018-09-30T15:35:31.939Z,48.80
2018-09-30T15:38:00.339Z,49.70
2018-09-30T15:40:28.617Z,50.50
2018-09-30T15:42:57.030Z,50.80
2018-09-30T15:45:25.514Z,51.10
2018-09-30T15:47:53.825Z,51.60
2018-09-30T15:50:22.274Z,51.20
2018-09-30T15:52:51.258Z,51.60
2018-09-30T15:55:26.017Z,51.70
2018-09-30T15:57:54.597Z,52.20
2018-09-30T16:00:22.885Z,53.20
2018-09-30T16:02:51.187Z,52.60
2018-09-30T16:05:19.467Z,53.00
2018-09-30T16:07:48.178Z,52.90
2018-09-30T16:10:16.896Z,53.30
2018-09-30T16:12:45.226Z,54.50
2018-09-30T16:15:13.482Z,55.00
2018-09-30T16:17:41.851Z,55.00
2018-09-30T16:20:10.146Z,55.50
2018-09-30T16:22:38.486Z,55.10
2018-09-30T16:25:06.870Z,56.00
2018-09-30T16:27:35.223Z,56.40
2018-09-30T16:30:03.650Z,58.20
2018-09-30T16:32:32.194Z,59.00
2018-09-30T16:35:00.612Z,58.20
2018-09-30T16:37:28.929Z,59.00
2018-09-30T16:39:57.198Z,59.70
2018-09-30T16:42:25.647Z,59.60
2018-09-30T16:44:53.938Z,58.80
2018-09-30T16:47:22.359Z,58.70
2018-09-30T16:49:50.736Z,58.60
2018-09-30T16:52:19.142Z,59.00
2018-09-30T16:54:47.466Z,58.70
2018-09-30T16:57:15.923Z,59.30
2018-09-30T16:59:44.258Z,59.30
2018-09-30T17:02:12.618Z,59.20
2018-09-30T17:04:40.989Z,60.20
2018-09-30T17:07:09.405Z,60.50
2018-09-30T17:09:37.663Z,60.80
2018-09-30T17:12:06.393Z,63.60
2018-09-30T17:14:34.738Z,63.80
2018-09-30T17:17:03.078Z,63.80
2018-09-30T17:19:31.341Z,63.50
2018-09-30T17:21:59.729Z,66.80
2018-09-30T17:24:28.095Z,67.50
2018-09-30T17:26:56.438Z,66.90
2018-09-30T17:29:24.745Z,64.60
2018-09-30T17:31:53.050Z,68.90
2018-09-30T17:34:21.412Z,69.50
2018-09-30T17:36:49.826Z,71.30
2018-09-30T17:39:18.085Z,75.30
2018-09-30T17:41:46.591Z,75.30
2018-09-30T17:44:15.015Z,78.30
2018-09-30T17:46:43.339Z,77.90
2018-09-30T17:49:11.677Z,78.60
2018-09-30T17:51:40.102Z,78.20
2018-09-30T17:54:08.421Z,79.00
2018-09-30T17:56:37.777Z,80.00
2018-09-30T17:59:06.237Z,80.10
2018-09-30T18:01:49.671Z,83.10
2018-09-30T18:04:18.066Z,83.60
2018-09-30T18:06:46.415Z,82.50
2018-09-30T18:09:14.712Z,83.20
2018-09-30T18:11:43.266Z,83.10
2018-09-30T18:14:11.585Z,83.60
2018-09-30T18:16:40.190Z,85.60
2018-09-30T18:19:08.548Z,86.00
2018-09-30T18:21:36.854Z,87.10
2018-09-30T18:24:05.468Z,87.60
2018-09-30T18:26:36.204Z,86.20
2018-09-30T18:29:04.571Z,87.00
2018-09-30T18:31:32.886Z,87.00
2018-09-30T18:34:08.678Z,86.20
2018-09-30T18:36:37.207Z,86.60
2018-09-30T18:39:08.109Z,87.50
2018-09-30T18:41:36.834Z,87.60
2018-09-30T18:44:05.768Z,89.70
2018-09-30T18:46:34.252Z,88.30
2018-09-30T18:49:02.471Z,90.60
2018-09-30T18:51:30.946Z,90.20
2018-09-30T18:53:59.252Z,90.90
2018-09-30T18:56:27.640Z,90.50
2018-09-30T18:58:55.930Z,90.90
2018-09-30T19:01:25.176Z,91.60
2018-09-30T19:03:53.779Z,91.90
2018-09-30T19:06:22.181Z,91.80
2018-09-30T19:08:51.022Z,92.30
2018-09-30T19:11:19.579Z,92.40
2018-09-30T19:13:47.981Z,92.80
2018-09-30T19:16:16.415Z,92.80
2018-09-30T19:18:44.939Z,92.90
2018-09-30T19:21:13.280Z,92.40
2018-09-30T19:23:41.881Z,92.30
2018-09-30T19:26:10.220Z,92.40
2018-09-30T19:28:38.557Z,92.00
2018-09-30T19:31:06.921Z,92.10
2018-09-30T19:33:35.337Z,92.70
2018-09-30T19:36:03.824Z,92.20
2018-09-30T19:38:32.178Z,92.30
2018-09-30T19:41:00.677Z,92.60
2018-09-30T19:43:29.889Z,92.50
2018-09-30T19:45:58.345Z,92.80
2018-09-30T19:48:26.752Z,93.00
2018-09-30T19:50:54.975Z,92.90
2018-09-30T19:53:23.362Z,92.80
2018-09-30T19:55:51.686Z,94.00
2018-09-30T19:58:20.142Z,94.10
2018-09-30T20:00:48.585Z,93.90
2018-09-30T20:03:17.026Z,94.30
2018-09-30T20:05:45.540Z,94.40
2018-09-30T20:08:14.034Z,95.20
2018-09-30T20:10:42.494Z,95.00
2018-09-30T20:13:10.921Z,95.20
2018-09-30T20:15:39.253Z,95.50
2018-09-30T20:18:07.701Z,95.80
2018-09-30T20:20:36.109Z,95.60
2018-09-30T20:23:04.441Z,95.40
2018-09-30T20:25:32.730Z,95.30
2018-09-30T20:28:01.066Z,95.40
2018-09-30T20:30:29.391Z,94.90
2018-09-30T20:32:57.759Z,94.80
2018-09-30T20:35:26.082Z,95.50
2018-09-30T20:37:54.520Z,95.00
2018-09-30T20:40:22.816Z,95.40
2018-09-30T20:42:51.206Z,95.30
2018-09-30T20:45:19.496Z,95.40
2018-09-30T20:47:47.763Z,95.40
2018-09-30T20:50:16.094Z,95.60
2018-09-30T20:52:44.390Z,96.20
2018-09-30T20:55:14.108Z,95.80
2018-09-30T20:57:42.458Z,96.00
2018-09-30T21:00:10.712Z,96.30
2018-09-30T21:02:39.037Z,96.50
2018-09-30T21:05:29.488Z,96.40
2018-09-30T21:07:57.796Z,96.50
2018-09-30T21:10:26.100Z,95.90
2018-09-30T21:12:54.476Z,96.00
2018-09-30T21:15:22.826Z,96.20
2018-09-30T21:17:51.194Z,95.80
2018-09-30T21:20:19.498Z,96.50
2018-09-30T21:22:48.147Z,95.80
2018-09-30T21:25:16.609Z,96.20
2018-09-30T21:27:44.925Z,96.50
2018-09-30T21:30:13.218Z,96.10
2018-09-30T21:32:42.545Z,95.90
2018-09-30T21:35:11.306Z,96.10
2018-09-30T21:37:39.817Z,96.60
2018-09-30T21:40:08.098Z,96.20
2018-09-30T21:42:36.520Z,96.10
2018-09-30T21:45:05.049Z,96.40
2018-09-30T21:50:42.390Z,97.10
2018-09-30T21:53:12.321Z,97.00
2018-09-30T21:55:41.782Z,97.30
2018-09-30T21:58:14.448Z,97.50
2018-09-30T22:00:58.641Z,97.70
2018-09-30T22:03:27.295Z,97.90
2018-09-30T22:05:55.538Z,98.10
2018-09-30T22:08:29.965Z,98.10
2018-09-30T22:10:58.644Z,98.60
2018-09-30T22:13:26.884Z,98.30
2018-09-30T22:15:55.238Z,98.40
2018-09-30T22:18:23.473Z,98.70
2018-09-30T22:20:51.765Z,98.80
2018-09-30T22:28:46.313Z,99.00
2018-09-30T22:31:14.506Z,98.80
2018-09-30T22:33:42.680Z,99.50
2018-09-30T22:36:10.859Z,99.50
2018-09-30T22:38:39.374Z,99.90
2018-09-30T22:41:07.715Z,99.50
2018-09-30T22:43:36.978Z,99.60
2018-09-30T22:46:05.161Z,99.90
2018-09-30T22:48:33.363Z,99.90
2018-09-30T22:54:01.460Z,99.90
2018-09-30T22:56:29.687Z,99.90
2018-09-30T22:58:57.997Z,99.90
2018-09-30T23:01:26.189Z,99.90
2018-09-30T23:03:54.604Z,99.90
2018-09-30T23:06:23.016Z,99.90
2018-09-30T23:08:51.485Z,99.90
2018-09-30T23:11:19.799Z,99.90
2018-09-30T23:13:47.980Z,99.90
2018-09-30T23:16:16.296Z,99.90
2018-09-30T23:18:44.602Z,99.90
2018-09-30T23:21:12.867Z,99.90
2018-09-30T23:23:41.157Z,99.90
2018-09-30T23:26:09.877Z,99.90
2018-09-30T23:28:38.173Z,99.90
2018-09-30T23:31:07.157Z,99.90
2018-09-30T23:33:35.405Z,99.90
2018-09-30T23:36:03.665Z,99.90
2018-09-30T23:38:31.984Z,99.90
2018-09-30T23:41:00.314Z,99.90
2018-09-30T23:43:29.039Z,99.90
2018-09-30T23:45:57.407Z,99.90
2018-09-30T23:48:25.723Z,99.90
2018-09-30T23:50:54.046Z,99.90
2018-09-30T23:53:22.797Z,99.90
2018-09-30T23:55:52.130Z,99.90
2018-09-30T23:58:20.586Z,99.90
